Time,TemperatureF,DewpointF,PressureIn,WindDirection,WindDirectionDegrees,WindSpeedMPH,WindSpeedGustMPH,Humidity,HourlyPrecipIn,Conditions,Clouds,dailyrainin,SoftwareType,DateUTC
2013-04-04 00:07:00,25.9,20.8,30.42,SSE,153,0.0,1.0,81,0.00,,,0.00,meteohub,2013-04-04 07:07:00,
2013-04-04 00:12:00,25.7,21.0,30.42,SSE,153,0.0,3.0,82,0.00,,,0.00,meteohub,2013-04-04 07:12:00,
2013-04-04 00:17:00,25.9,21.2,30.43,SSE,153,0.0,3.0,82,0.00,,,0.00,meteohub,2013-04-04 07:17:00,
2013-04-04 00:22:00,25.9,21.2,30.43,SSE,153,0.0,2.0,82,0.00,,,0.00,meteohub,2013-04-04 07:22:00,
2013-04-04 00:32:00,26.1,20.7,30.43,SSE,153,0.0,1.0,80,0.00,,,0.00,meteohub,2013-04-04 07:32:00,
2013-04-04 00:42:00,25.7,20.5,30.43,SSE,153,0.0,1.0,80,0.00,,,0.00,meteohub,2013-04-04 07:42:00,
2013-04-04 00:47:00,25.5,20.5,30.43,SSE,153,0.0,1.0,81,0.00,,,0.00,meteohub,2013-04-04 07:47:00,
2013-04-04 00:52:00,25.5,20.8,30.43,SSE,153,0.0,0.0,82,0.00,,,0.00,meteohub,2013-04-04 07:52:00,
2013-04-04 00:57:00,25.5,20.8,30.43,SSE,153,0.0,0.0,82,0.00,,,0.00,meteohub,2013-04-04 07:57:00,
2013-04-04 01:02:00,25.5,20.8,30.43,SSE,153,0.0,0.0,82,0.00,,,0.00,meteohub,2013-04-04 08:02:00,
2013-04-04 01:07:00,25.7,20.7,30.43,SSE,153,0.0,0.0,81,0.00,,,0.00,meteohub,2013-04-04 08:07:00,
2013-04-04 01:12:00,25.5,20.3,30.43,SSE,153,0.0,0.0,80,0.00,,,0.00,meteohub,2013-04-04 08:12:00,
2013-04-04 01:17:00,25.2,19.9,30.44,SSE,153,0.0,0.0,80,0.00,,,0.00,meteohub,2013-04-04 08:17:00,
2013-04-04 01:22:00,24.8,19.8,30.44,SSE,153,0.0,0.0,81,0.00,,,0.00,meteohub,2013-04-04 08:22:00,
2013-04-04 01:32:00,24.4,19.9,30.44,SSE,153,0.0,0.0,83,0.00,,,0.00,meteohub,2013-04-04 08:32:00,
2013-04-04 01:37:00,24.4,20.3,30.44,SSE,153,0.0,1.0,84,0.00,,,0.00,meteohub,2013-04-04 08:37:00,
2013-04-04 01:42:00,24.3,19.8,30.44,SSE,153,0.0,1.0,83,0.00,,,0.00,meteohub,2013-04-04 08:42:00,
2013-04-04 01:47:00,24.1,19.9,30.44,SSE,153,0.0,1.0,84,0.00,,,0.00,meteohub,2013-04-04 08:47:00,
2013-04-04 01:57:00,23.5,19.4,30.44,SSE,153,0.0,0.0,84,0.00,,,0.00,meteohub,2013-04-04 08:57:00,
2013-04-04 02:02:00,23.5,19.8,30.44,SSE,153,0.0,1.0,85,0.00,,,0.00,meteohub,2013-04-04 09:02:00,
2013-04-04 02:07:00,23.5,19.8,30.44,SSE,153,0.0,1.0,85,0.00,,,0.00,meteohub,2013-04-04 09:07:00,
2013-04-04 02:17:00,23.2,19.4,30.44,SSE,153,0.0,0.0,85,0.00,,,0.00,meteohub,2013-04-04 09:17:00,
2013-04-04 02:22:00,22.8,19.2,30.44,SSE,153,0.0,0.0,86,0.00,,,0.00,meteohub,2013-04-04 09:22:00,
2013-04-04 02:27:00,22.8,19.0,30.44,SSE,153,1.0,1.0,85,0.00,,,0.00,meteohub,2013-04-04 09:27:00,
2013-04-04 02:32:00,22.5,18.7,30.44,SSE,153,0.0,2.0,85,0.00,,,0.00,meteohub,2013-04-04 09:32:00,
2013-04-04 02:37:00,22.3,19.0,30.45,SSE,153,0.0,2.0,87,0.00,,,0.00,meteohub,2013-04-04 09:37:00,
2013-04-04 02:47:00,22.5,19.2,30.44,SSE,153,0.0,1.0,87,0.00,,,0.00,meteohub,2013-04-04 09:47:00,
2013-04-04 02:52:00,22.5,19.2,30.45,SSE,153,0.0,1.0,87,0.00,,,0.00,meteohub,2013-04-04 09:52:00,
2013-04-04 03:02:00,22.3,18.5,30.45,SSE,153,0.0,0.0,85,0.00,,,0.00,meteohub,2013-04-04 10:02:00,
2013-04-04 03:07:00,21.9,18.1,30.45,SSE,153,0.0,0.0,85,0.00,,,0.00,meteohub,2013-04-04 10:07:00,
2013-04-04 03:12:00,21.7,18.0,30.45,SSE,153,0.0,0.0,85,0.00,,,0.00,meteohub,2013-04-04 10:12:00,
2013-04-04 03:17:00,21.6,18.0,30.45,SSE,153,0.0,0.0,86,0.00,,,0.00,meteohub,2013-04-04 10:17:00,
2013-04-04 03:22:00,21.6,18.3,30.45,SSE,153,0.0,0.0,87,0.00,,,0.00,meteohub,2013-04-04 10:22:00,
2013-04-04 03:32:00,22.3,19.2,30.46,SSE,153,0.0,2.0,88,0.00,,,0.00,meteohub,2013-04-04 10:32:00,
2013-04-04 03:37:00,22.5,18.9,30.46,SSE,153,0.0,2.0,86,0.00,,,0.00,meteohub,2013-04-04 10:37:00,
2013-04-04 03:47:00,21.9,18.1,30.46,SSE,153,0.0,1.0,85,0.00,,,0.00,meteohub,2013-04-04 10:47:00,
2013-04-04 03:52:00,21.7,18.5,30.46,SSE,153,0.0,0.0,87,0.00,,,0.00,meteohub,2013-04-04 10:52:00,
2013-04-04 03:57:00,21.7,18.5,30.46,SSE,153,0.0,1.0,87,0.00,,,0.00,meteohub,2013-04-04 10:57:00,
2013-04-04 04:02:00,21.9,18.9,30.46,SSE,153,0.0,1.0,88,0.00,,,0.00,meteohub,2013-04-04 11:02:00,
2013-04-04 04:07:00,21.9,18.7,30.46,SSE,153,0.0,0.0,87,0.00,,,0.00,meteohub,2013-04-04 11:07:00,
2013-04-04 04:17:00,21.7,18.5,30.46,SSE,153,0.0,0.0,87,0.00,,,0.00,meteohub,2013-04-04 11:17:00,
2013-04-04 04:22:00,21.4,17.6,30.46,SSE,153,0.0,0.0,85,0.00,,,0.00,meteohub,2013-04-04 11:22:00,
2013-04-04 04:27:00,21.0,17.4,30.47,SSE,153,0.0,1.0,86,0.00,,,0.00,meteohub,2013-04-04 11:27:00,
2013-04-04 04:37:00,20.8,18.1,30.47,SSE,153,0.0,1.0,89,0.00,,,0.00,meteohub,2013-04-04 11:37:00,
2013-04-04 04:42:00,20.8,17.8,30.46,SSE,153,0.0,1.0,88,0.00,,,0.00,meteohub,2013-04-04 11:42:00,
2013-04-04 04:47:00,20.8,18.1,30.47,SSE,153,0.0,1.0,89,0.00,,,0.00,meteohub,2013-04-04 11:47:00,
2013-04-04 04:52:00,21.0,18.3,30.47,SSE,153,0.0,0.0,89,0.00,,,0.00,meteohub,2013-04-04 11:52:00,
2013-04-04 04:57:00,21.2,18.5,30.47,SSE,153,0.0,0.0,89,0.00,,,0.00,meteohub,2013-04-04 11:57:00,
2013-04-04 05:02:00,21.2,18.1,30.47,SSE,153,0.0,0.0,88,0.00,,,0.00,meteohub,2013-04-04 12:02:00,
2013-04-04 05:07:00,20.8,17.6,30.48,SSE,153,0.0,0.0,87,0.00,,,0.00,meteohub,2013-04-04 12:07:00,
2013-04-04 05:12:00,20.7,17.6,30.48,SSE,153,0.0,0.0,88,0.00,,,0.00,meteohub,2013-04-04 12:12:00,
2013-04-04 05:22:00,20.8,18.3,30.48,SSE,153,0.0,0.0,90,0.00,,,0.00,meteohub,2013-04-04 12:22:00,
2013-04-04 05:27:00,20.8,18.1,30.48,SSE,153,0.0,0.0,89,0.00,,,0.00,meteohub,2013-04-04 12:27:00,
2013-04-04 05:32:00,20.8,18.1,30.48,SSE,153,0.0,0.0,89,0.00,,,0.00,meteohub,2013-04-04 12:32:00,
2013-04-04 05:37:00,20.7,17.4,30.48,SSE,153,0.0,1.0,87,0.00,,,0.00,meteohub,2013-04-04 12:37:00,
2013-04-04 05:47:00,20.3,17.2,30.48,SSE,153,0.0,1.0,88,0.00,,,0.00,meteohub,2013-04-04 12:47:00,
2013-04-04 05:52:00,19.9,16.9,30.49,SSE,153,0.0,1.0,88,0.00,,,0.00,meteohub,2013-04-04 12:52:00,
2013-04-04 05:57:00,19.9,17.2,30.49,SSE,153,0.0,2.0,89,0.00,,,0.00,meteohub,2013-04-04 12:57:00,
2013-04-04 06:02:00,19.9,17.8,30.49,SSE,153,0.0,2.0,91,0.00,,,0.00,meteohub,2013-04-04 13:02:00,
2013-04-04 06:12:00,20.1,17.6,30.49,SSE,153,0.0,1.0,90,0.00,,,0.00,meteohub,2013-04-04 13:12:00,
2013-04-04 06:17:00,19.9,17.4,30.49,SSE,153,0.0,1.0,90,0.00,,,0.00,meteohub,2013-04-04 13:17:00,
2013-04-04 06:22:00,19.9,17.2,30.50,SSE,153,0.0,1.0,89,0.00,,,0.00,meteohub,2013-04-04 13:22:00,
2013-04-04 06:27:00,19.8,17.2,30.50,SSE,153,0.0,0.0,90,0.00,,,0.00,meteohub,2013-04-04 13:27:00,
2013-04-04 06:32:00,19.9,17.4,30.50,SSE,153,0.0,0.0,90,0.00,,,0.00,meteohub,2013-04-04 13:32:00,
2013-04-04 06:42:00,20.1,18.0,30.50,SSE,153,0.0,0.0,91,0.00,,,0.00,meteohub,2013-04-04 13:42:00,
2013-04-04 06:52:00,20.5,18.3,30.51,SSE,153,0.0,0.0,91,0.00,,,0.00,meteohub,2013-04-04 13:52:00,
2013-04-04 06:57:00,21.0,18.9,30.51,SSE,153,0.0,0.0,91,0.00,,,0.00,meteohub,2013-04-04 13:57:00,
2013-04-04 07:02:00,22.1,20.1,30.51,SSE,153,0.0,1.0,92,0.00,,,0.00,meteohub,2013-04-04 14:02:00,
2013-04-04 07:07:00,23.0,20.3,30.51,SSE,153,0.0,1.0,89,0.00,,,0.00,meteohub,2013-04-04 14:07:00,
2013-04-04 07:12:00,23.9,20.8,30.51,SSE,153,0.0,1.0,88,0.00,,,0.00,meteohub,2013-04-04 14:12:00,
2013-04-04 07:17:00,25.0,21.4,30.51,SSE,153,0.0,1.0,86,0.00,,,0.00,meteohub,2013-04-04 14:17:00,
2013-04-04 07:27:00,26.8,22.1,30.51,SSE,153,0.0,0.0,82,0.00,,,0.00,meteohub,2013-04-04 14:27:00,
2013-04-04 07:37:00,28.4,22.6,30.51,SSE,153,0.0,1.0,79,0.00,,,0.00,meteohub,2013-04-04 14:37:00,
2013-04-04 07:47:00,30.2,23.9,30.51,SSE,153,0.0,1.0,77,0.00,,,0.00,meteohub,2013-04-04 14:47:00,
2013-04-04 07:52:00,30.7,23.4,30.51,SSE,153,0.0,1.0,74,0.00,,,0.00,meteohub,2013-04-04 14:52:00,
2013-04-04 07:57:00,31.3,23.0,30.51,SSE,153,0.0,1.0,71,0.00,,,0.00,meteohub,2013-04-04 14:57:00,
2013-04-04 08:02:00,31.8,23.5,30.51,SSE,153,0.0,1.0,71,0.00,,,0.00,meteohub,2013-04-04 15:02:00,
2013-04-04 08:07:00,32.4,23.4,30.51,SSE,153,1.0,2.0,69,0.00,,,0.00,meteohub,2013-04-04 15:07:00,
2013-04-04 08:12:00,32.5,23.2,30.50,SSE,153,0.0,2.0,68,0.00,,,0.00,meteohub,2013-04-04 15:12:00,
2013-04-04 08:22:00,33.6,23.2,30.50,SSE,153,0.0,2.0,65,0.00,,,0.00,meteohub,2013-04-04 15:22:00,
2013-04-04 08:27:00,34.9,23.2,30.50,SSE,153,0.0,2.0,62,0.00,,,0.00,meteohub,2013-04-04 15:27:00,
2013-04-04 08:32:00,35.2,23.2,30.49,SSE,154,0.0,3.0,61,0.00,,,0.00,meteohub,2013-04-04 15:32:00,
2013-04-04 08:42:00,36.1,23.2,30.50,SSE,155,0.0,3.0,59,0.00,,,0.00,meteohub,2013-04-04 15:42:00,
2013-04-04 08:57:00,38.1,23.9,30.49,WNW,299,0.0,4.0,56,0.00,,,0.00,meteohub,2013-04-04 15:57:00,
2013-04-04 09:02:00,38.7,23.4,30.50,WNW,299,1.0,4.0,54,0.00,,,0.00,meteohub,2013-04-04 16:02:00,
2013-04-04 09:12:00,39.6,23.0,30.49,WNW,288,1.0,4.0,51,0.00,,,0.00,meteohub,2013-04-04 16:12:00,
2013-04-04 09:17:00,39.9,23.2,30.49,WSW,237,4.0,4.0,51,0.00,,,0.00,meteohub,2013-04-04 16:17:00,
2013-04-04 09:27:00,41.0,24.3,30.48,NNW,335,1.0,5.0,51,0.00,,,0.00,meteohub,2013-04-04 16:27:00,
2013-04-04 09:37:00,42.6,23.7,30.48,NW,319,0.0,5.0,47,0.00,,,0.00,meteohub,2013-04-04 16:37:00,
2013-04-04 09:47:00,44.2,23.7,30.48,West,261,4.0,5.0,44,0.00,,,0.00,meteohub,2013-04-04 16:47:00,
2013-04-04 09:52:00,45.0,22.6,30.48,NW,319,2.0,5.0,41,0.00,,,0.00,meteohub,2013-04-04 16:52:00,
2013-04-04 10:02:00,46.0,23.0,30.48,WSW,249,6.0,7.0,40,0.00,,,0.00,meteohub,2013-04-04 17:02:00,
2013-04-04 10:07:00,46.6,21.7,30.47,NW,312,7.0,8.0,37,0.00,,,0.00,meteohub,2013-04-04 17:07:00,
2013-04-04 10:12:00,46.8,21.9,30.47,WNW,296,6.0,8.0,37,0.00,,,0.00,meteohub,2013-04-04 17:12:00,
2013-04-04 10:17:00,47.5,22.5,30.47,West,270,5.0,8.0,37,0.00,,,0.00,meteohub,2013-04-04 17:17:00,
2013-04-04 10:22:00,48.2,21.2,30.47,NW,310,3.0,10.0,34,0.00,,,0.00,meteohub,2013-04-04 17:22:00,
2013-04-04 10:37:00,48.7,21.6,30.46,NE,48,5.0,12.0,34,0.00,,,0.00,meteohub,2013-04-04 17:37:00,
2013-04-04 10:42:00,49.3,21.4,30.46,NW,312,1.0,12.0,33,0.00,,,0.00,meteohub,2013-04-04 17:42:00,
2013-04-04 10:47:00,49.6,19.4,30.47,West,262,7.0,12.0,30,0.00,,,0.00,meteohub,2013-04-04 17:47:00,
2013-04-04 10:52:00,49.6,20.3,30.46,North,5,6.0,9.0,31,0.00,,,0.00,meteohub,2013-04-04 17:52:00,
2013-04-04 11:02:00,50.0,19.0,30.46,NNW,334,1.0,9.0,29,0.00,,,0.00,meteohub,2013-04-04 18:02:00,
2013-04-04 11:07:00,50.9,19.8,30.45,North,5,5.0,9.0,29,0.00,,,0.00,meteohub,2013-04-04 18:07:00,
2013-04-04 11:12:00,51.3,19.2,30.45,NW,323,1.0,8.0,28,0.00,,,0.00,meteohub,2013-04-04 18:12:00,
2013-04-04 11:17:00,50.9,17.2,30.45,North,355,0.0,9.0,26,0.00,,,0.00,meteohub,2013-04-04 18:17:00,
2013-04-04 11:22:00,51.1,19.0,30.45,NW,318,6.0,10.0,28,0.00,,,0.00,meteohub,2013-04-04 18:22:00,
2013-04-04 11:32:00,51.1,19.0,30.45,NNW,336,1.0,10.0,28,0.00,,,0.00,meteohub,2013-04-04 18:32:00,
2013-04-04 11:37:00,51.1,19.0,30.44,NW,307,6.0,10.0,28,0.00,,,0.00,meteohub,2013-04-04 18:37:00,
2013-04-04 11:47:00,51.4,19.4,30.44,West,269,6.0,14.0,28,0.00,,,0.00,meteohub,2013-04-04 18:47:00,
2013-04-04 11:52:00,51.6,20.3,30.43,WNW,302,8.0,14.0,29,0.00,,,0.00,meteohub,2013-04-04 18:52:00,
2013-04-04 12:02:00,51.6,21.2,30.42,NW,322,6.0,12.0,30,0.00,,,0.00,meteohub,2013-04-04 19:02:00,
2013-04-04 12:07:00,51.8,18.9,30.42,East,86,0.0,12.0,27,0.00,,,0.00,meteohub,2013-04-04 19:07:00,
2013-04-04 12:12:00,52.5,21.2,30.41,NNE,32,4.0,8.0,29,0.00,,,0.00,meteohub,2013-04-04 19:12:00,
2013-04-04 12:22:00,52.5,21.2,30.40,NW,311,12.0,13.0,29,0.00,,,0.00,meteohub,2013-04-04 19:22:00,
2013-04-04 12:27:00,52.2,20.8,30.40,NNE,22,4.0,15.0,29,0.00,,,0.00,meteohub,2013-04-04 19:27:00,
2013-04-04 12:37:00,53.4,20.3,30.40,NNE,22,5.0,17.0,27,0.00,,,0.00,meteohub,2013-04-04 19:37:00,
2013-04-04 12:42:00,53.2,21.0,30.40,North,0,5.0,17.0,28,0.00,,,0.00,meteohub,2013-04-04 19:42:00,
2013-04-04 12:47:00,53.2,21.0,30.39,NW,325,4.0,17.0,28,0.00,,,0.00,meteohub,2013-04-04 19:47:00,
2013-04-04 12:57:00,53.8,19.8,30.38,North,5,2.0,11.0,26,0.00,,,0.00,meteohub,2013-04-04 19:57:00,
2013-04-04 13:02:00,53.4,19.4,30.38,NNW,335,9.0,14.0,26,0.00,,,0.00,meteohub,2013-04-04 20:02:00,
2013-04-04 13:12:00,54.3,21.9,30.38,NE,50,4.0,14.0,28,0.00,,,0.00,meteohub,2013-04-04 20:12:00,
2013-04-04 13:27:00,54.0,19.8,30.37,WSW,257,4.0,14.0,26,0.00,,,0.00,meteohub,2013-04-04 20:27:00,
2013-04-04 13:32:00,54.1,20.8,30.37,SW,223,1.0,11.0,27,0.00,,,0.00,meteohub,2013-04-04 20:32:00,
2013-04-04 13:37:00,54.3,21.0,30.36,NNW,334,0.0,11.0,27,0.00,,,0.00,meteohub,2013-04-04 20:37:00,
2013-04-04 13:42:00,54.9,19.8,30.36,NE,36,4.0,11.0,25,0.00,,,0.00,meteohub,2013-04-04 20:42:00,
2013-04-04 13:47:00,55.4,20.1,30.36,NW,310,5.0,12.0,25,0.00,,,0.00,meteohub,2013-04-04 20:47:00,
2013-04-04 13:57:00,55.8,20.5,30.35,WNW,298,1.0,12.0,25,0.00,,,0.00,meteohub,2013-04-04 20:57:00,
2013-04-04 14:02:00,55.6,20.3,30.35,West,270,6.0,14.0,25,0.00,,,0.00,meteohub,2013-04-04 21:02:00,
2013-04-04 14:12:00,55.2,19.9,30.34,NNW,332,0.0,14.0,25,0.00,,,0.00,meteohub,2013-04-04 21:12:00,
2013-04-04 14:17:00,55.9,21.6,30.34,NW,312,1.0,14.0,26,0.00,,,0.00,meteohub,2013-04-04 21:17:00,
2013-04-04 14:22:00,55.9,20.7,30.34,NNW,344,2.0,14.0,25,0.00,,,0.00,meteohub,2013-04-04 21:22:00,
2013-04-04 14:27:00,56.5,21.0,30.34,NNE,20,6.0,13.0,25,0.00,,,0.00,meteohub,2013-04-04 21:27:00,
2013-04-04 14:32:00,56.5,21.0,30.34,WNW,303,8.0,14.0,25,0.00,,,0.00,meteohub,2013-04-04 21:32:00,
2013-04-04 14:42:00,56.5,20.1,30.33,NNW,329,1.0,13.0,24,0.00,,,0.00,meteohub,2013-04-04 21:42:00,
2013-04-04 14:47:00,56.7,20.3,30.33,NNE,29,3.0,11.0,24,0.00,,,0.00,meteohub,2013-04-04 21:47:00,
2013-04-04 14:52:00,56.5,20.1,30.33,North,5,5.0,11.0,24,0.00,,,0.00,meteohub,2013-04-04 21:52:00,
2013-04-04 14:57:00,56.5,21.9,30.33,North,5,4.0,12.0,26,0.00,,,0.00,meteohub,2013-04-04 21:57:00,
2013-04-04 15:02:00,56.7,21.2,30.33,East,98,6.0,13.0,25,0.00,,,0.00,meteohub,2013-04-04 22:02:00,
2013-04-04 15:12:00,56.1,19.8,30.33,NW,319,9.0,13.0,24,0.00,,,0.00,meteohub,2013-04-04 22:12:00,
2013-04-04 15:17:00,55.9,20.7,30.33,NNE,13,7.0,12.0,25,0.00,,,0.00,meteohub,2013-04-04 22:17:00,
2013-04-04 15:22:00,55.9,19.6,30.32,NE,55,3.0,12.0,24,0.00,,,0.00,meteohub,2013-04-04 22:22:00,
2013-04-04 15:27:00,56.3,19.0,30.32,NW,313,7.0,12.0,23,0.00,,,0.00,meteohub,2013-04-04 22:27:00,
2013-04-04 15:37:00,56.1,16.7,30.32,NNW,329,3.0,11.0,21,0.00,,,0.00,meteohub,2013-04-04 22:37:00,
2013-04-04 15:42:00,55.9,17.6,30.32,NE,35,5.0,14.0,22,0.00,,,0.00,meteohub,2013-04-04 22:42:00,
2013-04-04 15:47:00,55.9,16.5,30.32,NW,315,3.0,14.0,21,0.00,,,0.00,meteohub,2013-04-04 22:47:00,
2013-04-04 15:52:00,56.1,16.7,30.31,NW,326,3.0,12.0,21,0.00,,,0.00,meteohub,2013-04-04 22:52:00,
2013-04-04 15:57:00,56.3,16.9,30.31,WNW,301,2.0,12.0,21,0.00,,,0.00,meteohub,2013-04-04 22:57:00,
2013-04-04 16:07:00,57.0,17.4,30.30,NW,309,6.0,12.0,21,0.00,,,0.00,meteohub,2013-04-04 23:07:00,
2013-04-04 16:12:00,57.2,18.7,30.30,NW,307,8.0,10.0,22,0.00,,,0.00,meteohub,2013-04-04 23:12:00,
2013-04-04 16:17:00,57.0,16.3,30.31,North,5,1.0,12.0,20,0.00,,,0.00,meteohub,2013-04-04 23:17:00,
2013-04-04 16:22:00,57.4,17.8,30.30,NW,316,5.0,12.0,21,0.00,,,0.00,meteohub,2013-04-04 23:22:00,
2013-04-04 16:27:00,57.2,16.5,30.30,NE,41,4.0,12.0,20,0.00,,,0.00,meteohub,2013-04-04 23:27:00,
2013-04-04 16:37:00,57.2,17.6,30.30,NW,309,6.0,11.0,21,0.00,,,0.00,meteohub,2013-04-04 23:37:00,
2013-04-04 16:42:00,56.8,18.3,30.30,NW,305,2.0,11.0,22,0.00,,,0.00,meteohub,2013-04-04 23:42:00,
2013-04-04 16:52:00,56.8,18.3,30.30,NNW,342,0.0,11.0,22,0.00,,,0.00,meteohub,2013-04-04 23:52:00,
2013-04-04 16:57:00,56.8,17.2,30.30,NNE,32,6.0,9.0,21,0.00,,,0.00,meteohub,2013-04-04 23:57:00,
2013-04-04 17:07:00,56.1,17.8,30.30,North,349,6.0,10.0,22,0.00,,,0.00,meteohub,2013-04-05 00:07:00,
2013-04-04 17:12:00,56.1,17.8,30.30,WNW,298,6.0,10.0,22,0.00,,,0.00,meteohub,2013-04-05 00:12:00,
2013-04-04 17:17:00,56.7,18.3,30.30,NW,309,3.0,11.0,22,0.00,,,0.00,meteohub,2013-04-05 00:17:00,
2013-04-04 17:27:00,57.0,18.5,30.30,WNW,295,2.0,9.0,22,0.00,,,0.00,meteohub,2013-04-05 00:27:00,
2013-04-04 17:37:00,56.7,19.2,30.30,NW,311,7.0,10.0,23,0.00,,,0.00,meteohub,2013-04-05 00:37:00,
2013-04-04 17:42:00,55.6,19.4,30.30,NW,311,7.0,10.0,24,0.00,,,0.00,meteohub,2013-04-05 00:42:00,
2013-04-04 17:52:00,54.3,19.2,30.30,NNW,341,2.0,9.0,25,0.00,,,0.00,meteohub,2013-04-05 00:52:00,
2013-04-04 17:57:00,54.1,19.0,30.30,NW,304,3.0,9.0,25,0.00,,,0.00,meteohub,2013-04-05 00:57:00,
2013-04-04 18:07:00,53.6,19.6,30.29,NW,313,0.0,6.0,26,0.00,,,0.00,meteohub,2013-04-05 01:07:00,
2013-04-04 18:12:00,53.2,19.2,30.29,NW,313,1.0,5.0,26,0.00,,,0.00,meteohub,2013-04-05 01:12:00,
2013-04-04 18:17:00,53.1,19.0,30.29,NNW,342,5.0,6.0,26,0.00,,,0.00,meteohub,2013-04-05 01:17:00,
2013-04-04 18:22:00,52.9,18.9,30.29,North,355,2.0,6.0,26,0.00,,,0.00,meteohub,2013-04-05 01:22:00,
2013-04-04 18:32:00,51.3,20.1,30.30,West,279,0.0,5.0,29,0.00,,,0.00,meteohub,2013-04-05 01:32:00,
2013-04-04 18:42:00,49.8,21.2,30.30,SSE,167,3.0,4.0,32,0.00,,,0.00,meteohub,2013-04-05 01:42:00,
2013-04-04 18:52:00,45.9,24.1,30.30,SSE,167,0.0,4.0,42,0.00,,,0.00,meteohub,2013-04-05 01:52:00,
2013-04-04 19:02:00,44.8,23.7,30.30,SSE,166,0.0,4.0,43,0.00,,,0.00,meteohub,2013-04-05 02:02:00,
2013-04-04 19:12:00,45.0,23.7,30.30,SE,146,0.0,4.0,43,0.00,,,0.00,meteohub,2013-04-05 02:12:00,
2013-04-04 19:17:00,45.1,23.4,30.30,SE,146,1.0,4.0,42,0.00,,,0.00,meteohub,2013-04-05 02:17:00,
2013-04-04 19:22:00,44.8,24.3,30.30,SSE,162,2.0,4.0,44,0.00,,,0.00,meteohub,2013-04-05 02:22:00,
2013-04-04 19:32:00,43.7,23.7,30.31,SE,144,1.0,4.0,45,0.00,,,0.00,meteohub,2013-04-05 02:32:00,
2013-04-04 19:42:00,43.5,24.1,30.31,SE,145,0.0,4.0,46,0.00,,,0.00,meteohub,2013-04-05 02:42:00,
2013-04-04 19:47:00,43.5,24.1,30.31,SSE,148,0.0,4.0,46,0.00,,,0.00,meteohub,2013-04-05 02:47:00,
2013-04-04 19:52:00,43.3,24.4,30.31,SSE,155,3.0,4.0,47,0.00,,,0.00,meteohub,2013-04-05 02:52:00,
2013-04-04 19:57:00,42.8,24.4,30.31,SSE,153,3.0,4.0,48,0.00,,,0.00,meteohub,2013-04-05 02:57:00,
2013-04-04 20:02:00,42.4,23.7,30.32,ESE,121,2.0,4.0,47,0.00,,,0.00,meteohub,2013-04-05 03:02:00,
2013-04-04 20:07:00,42.4,23.7,30.32,ESE,121,2.0,4.0,47,0.00,,,0.00,meteohub,2013-04-05 03:07:00,
2013-04-04 20:12:00,42.6,23.7,30.32,ESE,109,3.0,3.0,47,0.00,,,0.00,meteohub,2013-04-05 03:12:00,
2013-04-04 20:17:00,42.6,24.3,30.32,ESE,121,0.0,4.0,48,0.00,,,0.00,meteohub,2013-04-05 03:17:00,
2013-04-04 20:22:00,42.3,23.9,30.32,SSE,159,3.0,4.0,48,0.00,,,0.00,meteohub,2013-04-05 03:22:00,
2013-04-04 20:27:00,42.1,23.7,30.32,SSE,157,1.0,5.0,48,0.00,,,0.00,meteohub,2013-04-05 03:27:00,
2013-04-04 20:32:00,41.7,24.4,30.32,SSE,157,2.0,5.0,50,0.00,,,0.00,meteohub,2013-04-05 03:32:00,
2013-04-04 20:37:00,41.7,23.9,30.33,SSE,157,1.0,5.0,49,0.00,,,0.00,meteohub,2013-04-05 03:37:00,
2013-04-04 20:42:00,41.5,23.7,30.33,SSE,158,0.0,5.0,49,0.00,,,0.00,meteohub,2013-04-05 03:42:00,
2013-04-04 20:47:00,41.7,24.4,30.33,SSE,159,2.0,5.0,50,0.00,,,0.00,meteohub,2013-04-05 03:47:00,
2013-04-04 20:52:00,41.7,24.4,30.33,SSE,157,3.0,5.0,50,0.00,,,0.00,meteohub,2013-04-05 03:52:00,
2013-04-04 20:57:00,41.7,23.9,30.33,ESE,111,1.0,4.0,49,0.00,,,0.00,meteohub,2013-04-05 03:57:00,
2013-04-04 21:02:00,41.7,23.5,30.33,ESE,111,0.0,5.0,48,0.00,,,0.00,meteohub,2013-04-05 04:02:00,
2013-04-04 21:07:00,41.7,23.5,30.33,ESE,111,0.0,5.0,48,0.00,,,0.00,meteohub,2013-04-05 04:07:00,
2013-04-04 21:17:00,41.5,23.7,30.33,ESE,111,0.0,3.0,49,0.00,,,0.00,meteohub,2013-04-05 04:17:00,
2013-04-04 21:22:00,41.2,23.9,30.33,ESE,111,0.0,3.0,50,0.00,,,0.00,meteohub,2013-04-05 04:22:00,
2013-04-04 21:27:00,40.8,23.5,30.33,ESE,111,0.0,2.0,50,0.00,,,0.00,meteohub,2013-04-05 04:27:00,
2013-04-04 21:32:00,40.3,24.1,30.33,SSW,195,0.0,2.0,52,0.00,,,0.00,meteohub,2013-04-05 04:32:00,
2013-04-04 21:42:00,39.4,23.7,30.32,ESE,106,1.0,5.0,53,0.00,,,0.00,meteohub,2013-04-05 04:42:00,
2013-04-04 21:47:00,38.8,24.4,30.32,SSE,154,2.0,3.0,56,0.00,,,0.00,meteohub,2013-04-05 04:47:00,
2013-04-04 21:52:00,38.3,23.2,30.32,SSE,154,1.0,5.0,54,0.00,,,0.00,meteohub,2013-04-05 04:52:00,
2013-04-04 22:02:00,38.1,23.9,30.32,SSE,154,0.0,5.0,56,0.00,,,0.00,meteohub,2013-04-05 05:02:00,
2013-04-04 22:07:00,37.8,23.5,30.32,SSE,154,0.0,3.0,56,0.00,,,0.00,meteohub,2013-04-05 05:07:00,
2013-04-04 22:17:00,37.2,23.4,30.32,SSE,154,0.0,1.0,57,0.00,,,0.00,meteohub,2013-04-05 05:17:00,
2013-04-04 22:22:00,37.4,23.9,30.32,SSE,155,0.0,1.0,58,0.00,,,0.00,meteohub,2013-04-05 05:22:00,
2013-04-04 22:27:00,37.0,23.7,30.31,SSE,155,0.0,2.0,58,0.00,,,0.00,meteohub,2013-04-05 05:27:00,
2013-04-04 22:32:00,36.7,24.4,30.32,SSE,155,0.0,2.0,61,0.00,,,0.00,meteohub,2013-04-05 05:32:00,
2013-04-04 22:37:00,36.3,24.6,30.32,SSE,155,0.0,2.0,62,0.00,,,0.00,meteohub,2013-04-05 05:37:00,
2013-04-04 22:47:00,36.3,24.6,30.32,SSE,155,1.0,2.0,62,0.00,,,0.00,meteohub,2013-04-05 05:47:00,
2013-04-04 22:52:00,36.5,24.8,30.32,SSE,157,2.0,2.0,62,0.00,,,0.00,meteohub,2013-04-05 05:52:00,
2013-04-04 22:57:00,35.6,24.3,30.32,SSE,157,0.0,3.0,63,0.00,,,0.00,meteohub,2013-04-05 05:57:00,
2013-04-04 23:02:00,34.9,24.3,30.31,SSE,157,0.0,3.0,65,0.00,,,0.00,meteohub,2013-04-05 06:02:00,
2013-04-04 23:12:00,34.3,23.7,30.31,SSE,155,0.0,3.0,65,0.00,,,0.00,meteohub,2013-04-05 06:12:00,
2013-04-04 23:27:00,34.5,23.9,30.30,SSE,148,1.0,6.0,65,0.00,,,0.00,meteohub,2013-04-05 06:27:00,
2013-04-04 23:32:00,34.7,24.1,30.30,SSE,148,1.0,6.0,65,0.00,,,0.00,meteohub,2013-04-05 06:32:00,
2013-04-04 23:37:00,34.5,23.9,30.30,SSE,148,1.0,6.0,65,0.00,,,0.00,meteohub,2013-04-05 06:37:00,
2013-04-04 23:42:00,34.9,23.9,30.30,SSE,165,1.0,4.0,64,0.00,,,0.00,meteohub,2013-04-05 06:42:00,
2013-04-04 23:52:00,35.1,23.7,30.30,SSE,165,1.0,4.0,63,0.00,,,0.00,meteohub,2013-04-05 06:52:00,
2013-04-04 23:57:00,35.2,23.5,30.30,SSE,155,2.0,4.0,62,0.00,,,0.00,meteohub,2013-04-05 06:57:00,